Česky Dansk Deutsch English Español Suomi Français Magyar Italiano Nederlands norsk Polski Português svenska Türkçe

 

Het Weer

Grenchen (Zwitzerland)

05:50, 31 juli 2016 (GMT)

NWNNE
WE
SWSSE
Home            
Grenchen Bern / Belp Neuchatel Bale-Mulhouse Les Eplatures Payerne Belfort Colmar Zurich-Kloten Lausanne Luxeuil Sion Besancon Donaueschingen / Villingen Lahr, CAN-AFB Pian Rosa Geneve-Cointrin Konstanz Dole Tavaux Strasbourg Messstetten Saint Gallen-Altenrhein Friedrichshafen

Om een weerknop op uw website of weblog te plaatsen, copieer onderstaande code en plak die in uw pagina. In het eerste vakje staat HTML-code, in het tweede vakje UBB-code.


Add to Google

Details

Wind speed:2 bf, 6 kn, 3.1 m/s, 6.9 miles/h, 11.1 km/h
Wind direction:SW, 220°
Visibility:Greater than 10000 m, 10 km, 32800 ft, 6.2 miles
Clouds:Ein wenig bewölkt at 5000 ft, 1524 m
Durchbrochene Bewölkung at 8700 ft, 2652 m
Temperature:20°C, 68°F
Dew-point:16°C, 61°F
Atmospheric pressure:1015 hPa, 761.3 mmHg, 29.97 inHg, 1.002 atm
Relative humidity:77.8 %
METAR:LSZG 310550Z 22006KT 9999 FEW050 BKN087 20/16 Q1015 NOSIG

Snelkoppelingen

Actuele weersinformatie van de hele wereld. Voeg locaties toe met het plus (+) symbool. Deze snelkoppelingen kunnen worden toegevoegd aan Google.

Lid van de Technetium groep

website free tracking
StatCounter NetStat W3C Validator

26-01-2022 06:17:51
astro.technetium.be money.technetium.be phote.technetium.be tafeltennistafel.technetium.be www.ligfiets.net